Time;durP1;ratioP1;P1;durP2;ratioP2;P2;SDS_P1;SDS_P2;PMS_P1;PMS_P2;Temp;Humidity;BMP_temperature;BMP_pressure;BME280_temperature;BME280_humidity;BME280_pressure;Samples;Min_cycle;Max_cycle;Signal;HPM_P1;HPM_P2
2021/04/24 00:00:15;;;;;;;;;34.75;30.50;;;;;5.52;63.47;100458.44;3590554;40;10156;-47
2021/04/24 00:02:43;;;;;;;;;36.25;25.25;;;;;5.42;64.08;100469.31;3588344;40;10164;-50
2021/04/24 00:05:29;;;;;;;;;34.25;23.00;;;;;5.44;63.26;100470.16;3593445;40;10183;-51
2021/04/24 00:08:03;;;;;;;;;30.00;17.00;;;;;5.64;62.29;100463.41;3587972;40;10332;-49
2021/04/24 00:10:34;;;;;;;;;34.25;27.00;;;;;5.55;62.38;100469.00;3593185;40;10217;-50
2021/04/24 00:13:02;;;;;;;;;25.25;20.00;;;;;5.64;62.09;100469.63;3593609;39;10130;-50
2021/04/24 00:15:29;;;;;;;;;26.00;22.33;;;;;5.72;61.81;100474.72;3590600;40;10199;-51
2021/04/24 00:18:04;;;;;;;;;24.00;19.33;;;;;5.61;61.31;100474.13;3589371;40;10179;-50
2021/04/24 00:20:32;;;;;;;;;20.00;19.00;;;;;5.41;62.42;100466.72;3594528;40;10120;-51
2021/04/24 00:22:59;;;;;;;;;22.75;19.75;;;;;5.39;63.27;100466.75;3588431;39;10260;-51
2021/04/24 00:25:26;;;;;;;;;22.75;17.25;;;;;5.07;65.65;100462.31;3591552;40;10307;-50
2021/04/24 00:27:53;;;;;;;;;21.00;18.50;;;;;5.23;64.76;100460.09;3587695;40;10274;-51
2021/04/24 00:30:21;;;;;;;;;25.75;22.75;;;;;4.89;65.80;100463.66;3594223;40;10345;-48
2021/04/24 00:32:49;;;;;;;;;26.50;20.50;;;;;5.24;64.65;100460.06;3588999;40;10056;-51
2021/04/24 00:35:18;;;;;;;;;24.50;17.00;;;;;4.96;64.94;100457.28;3588266;40;10173;-53
2021/04/24 00:37:46;;;;;;;;;24.00;16.00;;;;;5.03;65.79;100461.53;3591021;39;10241;-49
2021/04/24 00:40:15;;;;;;;;;19.00;17.75;;;;;5.12;65.02;100459.53;3592430;40;10649;-49
2021/04/24 00:42:42;;;;;;;;;22.00;18.25;;;;;5.37;63.35;100457.97;3593781;39;10288;-49
2021/04/24 00:45:12;;;;;;;;;18.00;16.00;;;;;4.90;65.21;100468.09;3591409;40;10153;-50
2021/04/24 00:47:39;;;;;;;;;26.50;18.00;;;;;5.09;64.75;100470.25;3591401;40;10188;-51
2021/04/24 00:50:10;;;;;;;;;26.50;19.00;;;;;4.93;65.03;100469.78;3592780;39;10362;-53
2021/04/24 00:52:37;;;;;;;;;33.75;23.25;;;;;4.57;67.21;100470.66;3587001;40;10184;-49
2021/04/24 00:55:06;;;;;;;;;18.75;18.00;;;;;4.52;68.29;100472.56;3589911;40;10056;-48
2021/04/24 00:57:33;;;;;;;;;21.25;18.00;;;;;4.50;67.13;100471.75;3588465;39;10161;-49
2021/04/24 01:00:00;;;;;;;;;21.00;15.00;;;;;4.65;67.12;100465.16;3591690;40;10072;-49
2021/04/24 01:02:27;;;;;;;;;24.25;14.50;;;;;4.54;66.83;100470.75;3589765;40;10013;-47
2021/04/24 01:04:54;;;;;;;;;20.00;16.00;;;;;4.81;66.14;100476.28;3592568;40;10190;-48
2021/04/24 01:07:21;;;;;;;;;16.75;16.00;;;;;4.90;65.07;100478.72;3593128;40;9902;-49
2021/04/24 01:09:48;;;;;;;;;20.25;15.75;;;;;5.04;64.12;100478.38;3591056;39;10291;-52
2021/04/24 01:12:15;;;;;;;;;22.75;15.75;;;;;4.97;64.80;100471.44;3587984;40;10251;-50
2021/04/24 01:14:42;;;;;;;;;25.25;20.00;;;;;4.93;64.46;100483.97;3589453;39;10211;-47
2021/04/24 01:17:08;;;;;;;;;24.75;20.50;;;;;4.75;65.80;100473.78;3587190;40;10386;-50
2021/04/24 01:19:35;;;;;;;;;27.75;17.00;;;;;4.61;67.77;100488.31;3590960;40;10205;-50
2021/04/24 01:22:11;;;;;;;;;21.75;18.75;;;;;4.41;68.10;100477.25;3596516;40;10051;-46
2021/04/24 01:24:38;;;;;;;;;24.50;17.75;;;;;4.04;68.84;100480.75;3589668;40;10032;-51
2021/04/24 01:27:07;;;;;;;;;22.25;17.00;;;;;3.88;69.21;100492.63;3592000;40;10041;-49
2021/04/24 01:29:37;;;;;;;;;23.00;18.00;;;;;4.03;69.98;100491.41;3592215;40;9808;-48
2021/04/24 01:32:06;;;;;;;;;18.75;15.50;;;;;3.57;70.73;100497.69;3596345;40;10061;-48
2021/04/24 01:34:33;;;;;;;;;22.25;17.50;;;;;4.30;67.97;100489.94;3590540;39;9939;-51
2021/04/24 01:37:02;;;;;;;;;23.25;15.75;;;;;4.04;68.88;100495.84;3592565;40;9967;-49
2021/04/24 01:39:30;;;;;;;;;25.50;18.75;;;;;4.14;67.74;100497.38;3589412;40;10191;-49
2021/04/24 01:41:58;;;;;;;;;24.50;18.00;;;;;4.17;68.83;100499.97;3590523;39;10004;-49
2021/04/24 01:44:25;;;;;;;;;16.50;14.25;;;;;3.99;68.11;100505.69;3591407;39;10906;-50
2021/04/24 01:46:52;;;;;;;;;14.50;14.25;;;;;4.32;65.67;100501.41;3594799;39;10187;-47
2021/04/24 01:49:20;;;;;;;;;24.25;16.50;;;;;4.33;64.58;100504.03;3599916;39;9976;-52
2021/04/24 01:51:47;;;;;;;;;19.25;15.00;;;;;4.46;64.23;100501.97;3591163;40;9951;-50
2021/04/24 01:54:14;;;;;;;;;18.25;16.75;;;;;4.37;63.73;100507.47;3590547;39;11342;-50
2021/04/24 01:56:45;;;;;;;;;17.50;13.00;;;;;4.26;64.45;100512.16;3590584;40;10376;-50
2021/04/24 01:59:18;;;;;;;;;17.75;15.25;;;;;3.65;68.46;100507.25;3592154;40;10132;-50
2021/04/24 02:01:49;;;;;;;;;17.50;17.25;;;;;3.99;66.13;100511.00;3593735;40;10091;-50
2021/04/24 02:04:19;;;;;;;;;24.00;18.25;;;;;3.93;67.96;100506.69;3588444;40;10342;-51
2021/04/24 02:06:46;;;;;;;;;16.25;14.50;;;;;3.88;68.73;100508.56;3593682;39;9904;-48
2021/04/24 02:09:17;;;;;;;;;24.25;17.25;;;;;3.41;69.17;100498.00;3593798;39;9749;-50
2021/04/24 02:12:10;;;;;;;;;16.50;13.75;;;;;3.96;66.83;100501.31;3589113;40;9848;-48
2021/04/24 02:14:49;;;;;;;;;15.00;12.25;;;;;3.72;68.03;100503.56;3592921;39;9842;-48
2021/04/24 02:17:22;;;;;;;;;26.75;18.75;;;;;3.52;69.24;100500.44;3592523;39;10100;-50
2021/04/24 02:19:52;;;;;;;;;20.50;17.25;;;;;4.14;67.74;100497.38;3589376;40;9995;-50
2021/04/24 02:22:22;;;;;;;;;21.75;14.25;;;;;3.50;69.12;100499.56;3596000;40;9936;-51
2021/04/24 02:24:59;;;;;;;;;12.00;10.00;;;;;4.02;65.82;100506.47;3589923;40;9912;-50
2021/04/24 02:27:28;;;;;;;;;30.00;21.50;;;;;4.28;66.64;100497.06;3589834;40;9683;-51
2021/04/24 02:29:55;;;;;;;;;31.50;21.00;;;;;4.12;67.68;100491.22;3591795;39;10007;-50
2021/04/24 02:32:29;;;;;;;;;21.00;16.00;;;;;3.97;66.47;100495.06;3589121;40;10097;-53
2021/04/24 02:34:56;;;;;;;;;27.75;14.75;;;;;3.70;68.11;100494.75;3590827;40;10144;-47
2021/04/24 02:37:23;;;;;;;;;49.50;35.50;;;;;4.21;65.47;100498.09;3590122;40;9740;-52
2021/04/24 02:39:52;;;;;;;;;51.50;43.75;;;;;4.10;67.57;100493.91;3591176;40;9414;-51
2021/04/24 02:42:23;;;;;;;;;38.00;28.00;;;;;3.76;69.08;100495.53;3591640;40;9471;-49
2021/04/24 02:44:52;;;;;;;;;33.75;27.75;;;;;3.83;68.74;100498.03;3594490;39;9507;-49
2021/04/24 02:47:20;;;;;;;;;38.50;36.50;;;;;4.16;65.92;100496.44;3591839;40;9240;-53
2021/04/24 02:49:48;;;;;;;;;31.50;28.00;;;;;3.96;68.13;100496.00;3588870;39;9530;-50
2021/04/24 02:52:16;;;;;;;;;18.25;13.50;;;;;4.18;66.28;100497.25;3587124;40;10133;-48
2021/04/24 02:54:42;;;;;;;;;14.75;12.00;;;;;4.09;66.40;100508.09;3588312;40;10126;-51
2021/04/24 02:57:10;;;;;;;;;19.75;10.75;;;;;3.97;67.66;100500.38;3592677;39;10178;-52
2021/04/24 02:59:37;;;;;;;;;20.00;18.00;;;;;3.76;68.63;100498.19;3587625;40;10140;-50
2021/04/24 03:02:04;;;;;;;;;28.25;18.00;;;;;2.88;69.79;100501.63;3587780;40;9814;-49
2021/04/24 03:04:31;;;;;;;;;12.50;12.50;;;;;2.56;72.24;100503.91;3597588;39;9419;-57
2021/04/24 03:06:58;;;;;;;;;26.75;20.50;;;;;3.01;70.25;100500.50;3598438;39;9501;-51
2021/04/24 03:09:25;;;;;;;;;24.75;17.00;;;;;2.96;72.06;100505.00;3597972;39;9353;-52
2021/04/24 03:11:52;;;;;;;;;22.00;14.00;;;;;3.18;70.23;100505.50;3597714;39;9652;-48
2021/04/24 03:14:19;;;;;;;;;20.00;14.00;;;;;3.35;69.77;100505.22;3587807;40;9705;-52
2021/04/24 03:16:46;;;;;;;;;25.50;15.00;;;;;2.93;71.33;100510.38;3587668;40;9869;-49
2021/04/24 03:19:13;;;;;;;;;29.75;20.75;;;;;2.93;72.33;100511.25;3593598;40;9458;-52
2021/04/24 03:21:40;;;;;;;;;32.50;22.75;;;;;2.98;72.19;100513.84;3591431;39;9707;-51
2021/04/24 03:24:08;;;;;;;;;35.75;24.25;;;;;2.95;72.88;100511.19;3587737;40;9588;-47
2021/04/24 03:26:35;;;;;;;;;40.75;31.00;;;;;2.74;73.19;100516.00;3587247;40;9804;-50
2021/04/24 03:29:02;;;;;;;;;44.25;29.75;;;;;3.18;70.17;100516.13;3592549;40;9493;-48
2021/04/24 03:31:29;;;;;;;;;24.25;15.75;;;;;3.23;69.90;100511.59;3597125;40;9678;-51
2021/04/24 03:33:56;;;;;;;;;30.25;20.25;;;;;2.91;72.44;100509.53;3588620;39;9425;-48
2021/04/24 03:36:24;;;;;;;;;24.50;17.50;;;;;2.72;73.96;100511.59;3597298;40;9610;-52
2021/04/24 03:38:51;;;;;;;;;22.00;14.00;;;;;2.95;73.09;100509.44;3593168;40;9655;-50
2021/04/24 03:41:19;;;;;;;;;31.50;19.50;;;;;2.69;73.76;100517.84;3587298;40;9852;-52
2021/04/24 03:43:45;;;;;;;;;19.50;17.00;;;;;2.73;74.07;100521.31;3595061;40;9617;-48
2021/04/24 03:46:13;;;;;;;;;27.00;20.25;;;;;2.84;74.30;100533.50;3587044;40;9451;-50
2021/04/24 03:48:40;;;;;;;;;21.75;20.50;;;;;2.79;74.10;100535.34;3590616;39;9699;-51
2021/04/24 03:51:07;;;;;;;;;35.75;26.25;;;;;2.97;73.58;100528.84;3589333;39;9391;-52
2021/04/24 03:53:33;;;;;;;;;27.00;19.25;;;;;3.35;71.23;100539.72;3587905;40;9353;-61
2021/04/24 03:56:00;;;;;;;;;10.00;8.75;;;;;3.04;71.91;100550.84;3587619;40;9270;-47
2021/04/24 03:58:27;;;;;;;;;34.75;22.50;;;;;2.96;72.49;100548.31;3593232;40;9280;-51
2021/04/24 04:00:54;;;;;;;;;21.50;14.25;;;;;3.07;72.21;100542.84;3594455;39;9693;-51
2021/04/24 04:03:21;;;;;;;;;25.00;17.00;;;;;3.17;73.21;100560.34;3587364;39;9245;-50
2021/04/24 04:05:49;;;;;;;;;28.50;20.75;;;;;2.96;73.62;100558.06;3597263;39;9532;-51
2021/04/24 04:08:16;;;;;;;;;26.50;20.00;;;;;2.81;74.68;100549.44;3596028;39;9520;-50
2021/04/24 04:10:45;;;;;;;;;35.00;26.00;;;;;3.19;72.80;100550.59;3596948;39;9708;-51
2021/04/24 04:13:14;;;;;;;;;25.00;20.00;;;;;3.26;72.75;100552.22;3596105;39;9961;-48
2021/04/24 04:15:41;;;;;;;;;26.00;21.00;;;;;3.33;71.42;100544.16;3597092;39;9457;-50
2021/04/24 04:18:16;;;;;;;;;28.25;19.75;;;;;3.44;72.86;100552.81;3595972;39;9484;-51
2021/04/24 04:20:46;;;;;;;;;30.00;21.50;;;;;3.55;70.81;100557.91;3596333;39;9609;-51
2021/04/24 04:23:25;;;;;;;;;23.25;19.00;;;;;3.58;71.08;100555.19;3596630;39;9976;-49
2021/04/24 04:25:52;;;;;;;;;23.00;18.25;;;;;3.69;70.38;100558.53;3597077;39;9855;-51
2021/04/24 04:28:20;;;;;;;;;24.25;19.00;;;;;4.12;67.68;100563.84;3597007;39;9982;-50
2021/04/24 04:30:50;;;;;;;;;22.75;19.00;;;;;4.20;67.53;100553.06;3596503;39;9741;-50
2021/04/24 04:33:18;;;;;;;;;27.50;18.50;;;;;3.72;70.32;100559.34;3596416;39;10473;-49
2021/04/24 04:35:46;;;;;;;;;16.75;15.00;;;;;4.23;67.72;100552.13;3596418;39;9963;-50
2021/04/24 04:38:13;;;;;;;;;14.25;11.50;;;;;4.35;67.35;100562.50;3593842;39;10752;-52
2021/04/24 04:40:41;;;;;;;;;29.50;22.75;;;;;5.16;64.63;100562.34;3589701;40;10196;-50
2021/04/24 04:43:08;;;;;;;;;22.33;17.67;;;;;8.18;55.08;100563.56;3587788;40;10102;-50
2021/04/24 04:45:36;;;;;;;;;21.67;17.00;;;;;10.21;48.11;100568.53;3589921;40;9988;-50
2021/04/24 04:48:05;;;;;;;;;24.00;17.67;;;;;8.71;52.17;100567.81;3587379;39;9900;-53
2021/04/24 04:50:36;;;;;;;;;16.67;15.00;;;;;8.83;52.13;100575.34;3591906;39;9882;-51
2021/04/24 04:53:03;;;;;;;;;24.67;19.00;;;;;8.85;50.59;100577.97;3595116;39;10047;-51
2021/04/24 04:55:31;;;;;;;;;23.67;19.00;;;;;7.48;54.58;100585.72;3598117;39;9923;-51
2021/04/24 04:57:58;;;;;;;;;20.67;18.00;;;;;7.08;55.14;100591.50;3600577;39;9860;-51
2021/04/24 05:00:26;;;;;;;;;16.00;14.00;;;;;6.50;58.83;100586.19;3607222;39;9847;-49
2021/04/24 05:02:53;;;;;;;;;22.67;19.00;;;;;6.46;59.06;100589.88;3596338;39;9987;-51
2021/04/24 05:05:21;;;;;;;;;16.33;13.00;;;;;6.44;59.28;100591.72;3598235;39;9962;-49
2021/04/24 05:07:49;;;;;;;;;20.67;17.00;;;;;6.85;57.32;100586.91;3597577;39;10001;-52
2021/04/24 05:10:24;;;;;;;;;22.33;13.33;;;;;7.81;54.80;100582.75;3597876;39;10444;-52
2021/04/24 05:12:52;;;;;;;;;20.33;15.33;;;;;8.51;53.17;100584.66;3601607;39;9941;-54
2021/04/24 05:15:20;;;;;;;;;18.67;15.00;;;;;7.83;53.75;100580.91;3607603;39;10014;-52
2021/04/24 05:17:48;;;;;;;;;11.67;11.67;;;;;8.69;51.47;100578.59;3600538;39;9942;-51
2021/04/24 05:20:16;;;;;;;;;21.00;16.00;;;;;9.09;51.49;100581.47;3594622;39;9795;-52
2021/04/24 05:22:47;;;;;;;;;18.67;15.00;;;;;8.30;53.20;100580.97;3593767;40;9772;-50
2021/04/24 05:25:18;;;;;;;;;20.33;15.00;;;;;7.82;53.96;100576.47;3598536;39;9806;-51
2021/04/24 05:27:47;;;;;;;;;22.33;17.67;;;;;7.55;54.50;100586.34;3597999;39;9892;-52
2021/04/24 05:30:17;;;;;;;;;20.33;18.00;;;;;7.72;54.06;100583.09;3598346;39;9761;-51
2021/04/24 05:32:45;;;;;;;;;14.67;12.00;;;;;7.99;53.66;100571.41;3598696;39;9799;-47
2021/04/24 05:35:14;;;;;;;;;22.33;16.33;;;;;9.12;51.82;100581.34;3598568;39;9909;-51
2021/04/24 05:37:42;;;;;;;;;20.00;17.00;;;;;9.35;49.30;100578.56;3598146;39;9742;-49
2021/04/24 05:40:09;;;;;;;;;17.00;14.00;;;;;9.17;49.54;100579.34;3598505;39;9757;-53
2021/04/24 05:42:36;;;;;;;;;14.33;12.33;;;;;8.93;50.17;100576.72;3597873;39;10252;-51
2021/04/24 05:45:12;;;;;;;;;16.67;16.67;;;;;9.30;49.21;100580.56;3598359;39;9761;-51
2021/04/24 05:47:42;;;;;;;;;17.33;15.00;;;;;10.11;49.85;100582.41;3598154;39;9936;-50
2021/04/24 05:50:10;;;;;;;;;14.67;14.33;;;;;10.13;48.78;100581.44;3604466;39;10183;-51
2021/04/24 05:52:38;;;;;;;;;17.33;14.67;;;;;9.24;51.04;100575.44;3608019;39;10309;-52
2021/04/24 05:55:08;;;;;;;;;20.67;16.00;;;;;9.89;51.03;100574.41;3608284;39;10214;-52
2021/04/24 05:57:35;;;;;;;;;16.00;13.00;;;;;9.13;51.09;100577.72;3607837;39;10479;-49
2021/04/24 06:00:11;;;;;;;;;16.33;16.33;;;;;9.18;51.40;100578.41;3607002;39;10215;-48
2021/04/24 06:02:37;;;;;;;;;17.33;16.67;;;;;9.47;51.62;100573.63;3607872;39;10139;-50
2021/04/24 06:05:09;;;;;;;;;20.00;16.33;;;;;9.92;51.04;100576.09;3606792;39;10334;-51
2021/04/24 06:07:40;;;;;;;;;27.00;18.00;;;;;9.66;51.21;100578.13;3607997;39;10219;-52
2021/04/24 06:10:11;;;;;;;;;16.00;13.00;;;;;10.30;49.65;100579.78;3608901;39;9920;-54
2021/04/24 06:12:39;;;;;;;;;17.33;15.00;;;;;9.77;50.78;100585.72;3607875;39;10412;-51
2021/04/24 06:15:11;;;;;;;;;17.33;16.00;;;;;9.79;50.54;100593.66;3607948;39;10398;-49
2021/04/24 06:17:39;;;;;;;;;17.33;13.67;;;;;9.78;50.93;100586.56;3607899;39;10242;-53
2021/04/24 06:20:09;;;;;;;;;21.33;16.33;;;;;9.99;51.45;100591.00;3606613;39;10575;-52
2021/04/24 06:22:38;;;;;;;;;21.00;17.50;;;;;11.23;47.43;100588.78;3596556;39;10767;-51
2021/04/24 06:25:11;;;;;;;;;21.50;21.00;;;;;10.60;49.31;100590.00;3597231;39;14132;-50
2021/04/24 06:27:38;;;;;;;;;23.50;18.75;;;;;11.59;48.79;100589.63;3597976;39;10747;-50
2021/04/24 06:30:07;;;;;;;;;18.25;17.00;;;;;13.07;44.72;100587.91;3597655;40;14060;-50
2021/04/24 06:32:35;;;;;;;;;22.75;18.00;;;;;15.14;38.65;100599.50;3597789;39;14035;-49
2021/04/24 06:35:05;;;;;;;;;20.25;16.00;;;;;16.87;35.49;100591.16;3597733;39;14100;-52
2021/04/24 06:37:33;;;;;;;;;39.75;35.00;;;;;20.18;30.18;100593.69;3597587;39;14242;-49
2021/04/24 06:40:00;;;;;;;;;27.25;26.25;;;;;20.77;30.13;100598.47;3597138;39;14085;-52
2021/04/24 06:42:27;;;;;;;;;34.00;25.50;;;;;20.02;30.78;100601.47;3597164;40;14104;-50
2021/04/24 06:44:53;;;;;;;;;41.00;34.25;;;;;20.39;30.30;100594.53;3597708;39;14077;-49
2021/04/24 06:47:20;;;;;;;;;19.00;17.00;;;;;19.28;31.65;100599.53;3597199;40;14232;-51
2021/04/24 06:49:47;;;;;;;;;16.50;15.00;;;;;21.33;27.69;100596.16;3602559;39;13953;-49
2021/04/24 06:52:14;;;;;;;;;15.00;15.00;;;;;19.30;30.76;100603.84;3607813;39;12787;-50
2021/04/24 06:54:41;;;;;;;;;14.75;13.50;;;;;21.86;27.55;100604.84;3607735;39;12746;-50
2021/04/24 06:57:07;;;;;;;;;20.00;17.25;;;;;20.22;30.30;100600.63;3607804;39;11691;-50
2021/04/24 06:59:34;;;;;;;;;14.75;14.25;;;;;18.12;32.86;100599.78;3607431;39;11573;-52
2021/04/24 07:02:02;;;;;;;;;16.50;15.75;;;;;19.78;31.20;100609.91;3607362;39;11570;-50
2021/04/24 07:04:29;;;;;;;;;17.50;16.50;;;;;18.54;32.22;100610.09;3607437;39;11902;-52
2021/04/24 07:06:56;;;;;;;;;20.75;15.75;;;;;19.84;30.73;100606.66;3607871;39;12381;-51
2021/04/24 07:09:23;;;;;;;;;16.25;15.00;;;;;20.73;30.51;100602.47;3606699;39;11972;-50
2021/04/24 07:11:50;;;;;;;;;23.00;18.50;;;;;19.68;30.78;100598.91;3606960;39;12240;-52
2021/04/24 07:14:17;;;;;;;;;16.75;16.75;;;;;19.45;30.76;100598.97;3607385;39;11990;-48
2021/04/24 07:16:44;;;;;;;;;24.25;21.75;;;;;22.19;27.69;100601.81;3607220;39;12318;-51
2021/04/24 07:19:12;;;;;;;;;19.50;17.75;;;;;22.03;27.45;100600.50;3607345;39;12301;-48
2021/04/24 07:21:40;;;;;;;;;20.00;19.00;;;;;21.92;28.28;100598.78;3607340;39;11283;-51
2021/04/24 07:24:08;;;;;;;;;19.00;16.00;;;;;21.06;28.52;100594.94;3607737;39;10778;-50
2021/04/24 07:26:35;;;;;;;;;18.50;17.50;;;;;22.25;28.53;100593.91;3607332;39;11109;-52
2021/04/24 07:29:02;;;;;;;;;21.75;16.75;;;;;20.60;30.80;100588.19;3607638;39;10579;-50
2021/04/24 07:31:29;;;;;;;;;33.25;26.50;;;;;19.26;32.84;100594.19;3607716;39;10605;-49
2021/04/24 07:33:58;;;;;;;;;33.25;28.75;;;;;14.00;41.79;100584.19;3607293;39;12653;-50
2021/04/24 07:36:26;;;;;;;;;39.50;32.25;;;;;13.66;43.70;100585.38;3607582;39;14000;-53
2021/04/24 07:38:55;;;;;;;;;20.50;19.50;;;;;13.46;44.18;100588.41;3607115;39;14021;-53
2021/04/24 07:41:26;;;;;;;;;25.50;19.25;;;;;13.34;44.97;100585.44;3607240;39;14548;-52
2021/04/24 07:43:53;;;;;;;;;18.50;18.50;;;;;13.25;44.53;100580.56;3607217;39;14011;-50
2021/04/24 07:46:20;;;;;;;;;21.50;18.00;;;;;13.66;44.24;100590.75;3607449;39;14040;-48
2021/04/24 07:48:47;;;;;;;;;22.50;18.75;;;;;13.50;44.20;100581.84;3606097;39;14017;-53
2021/04/24 07:51:14;;;;;;;;;24.00;21.00;;;;;14.10;44.08;100584.50;3597483;40;14062;-50
2021/04/24 07:53:42;;;;;;;;;22.25;18.25;;;;;13.65;43.61;100582.78;3596048;40;14045;-49
2021/04/24 07:56:09;;;;;;;;;23.25;19.25;;;;;13.45;43.23;100578.56;3597321;39;14249;-48
2021/04/24 07:58:37;;;;;;;;;23.25;20.00;;;;;13.56;42.25;100576.06;3597267;39;14579;-51
2021/04/24 08:01:04;;;;;;;;;22.50;18.25;;;;;14.08;42.70;100575.63;3597387;39;14118;-51
2021/04/24 08:03:31;;;;;;;;;20.00;17.75;;;;;14.08;42.81;100580.16;3596923;39;14996;-51
2021/04/24 08:05:58;;;;;;;;;20.00;18.50;;;;;13.32;42.24;100573.91;3596717;40;14064;-50
2021/04/24 08:08:25;;;;;;;;;20.75;16.25;;;;;13.65;42.22;100577.38;3597240;39;14214;-53
2021/04/24 08:10:52;;;;;;;;;25.00;20.50;;;;;13.71;41.98;100577.00;3596878;39;14081;-52
2021/04/24 08:13:19;;;;;;;;;27.75;19.50;;;;;13.47;42.11;100573.94;3597022;39;14057;-48
2021/04/24 08:15:46;;;;;;;;;25.00;18.25;;;;;13.84;42.06;100573.47;3596691;39;14106;-50
2021/04/24 08:18:13;;;;;;;;;17.75;17.25;;;;;13.20;42.61;100563.78;3596976;39;14557;-50
2021/04/24 08:20:40;;;;;;;;;24.25;21.75;;;;;14.15;43.04;100576.13;3597156;40;14023;-53
2021/04/24 08:23:07;;;;;;;;;17.25;16.50;;;;;13.87;41.68;100567.00;3596755;40;14034;-51
2021/04/24 08:25:34;;;;;;;;;19.75;18.75;;;;;13.88;41.99;100570.59;3596858;40;14058;-49
2021/04/24 08:28:01;;;;;;;;;15.50;15.00;;;;;14.03;42.42;100569.63;3596981;39;14005;-53
2021/04/24 08:30:30;;;;;;;;;28.00;20.50;;;;;13.36;41.43;100572.75;3596768;40;14201;-54
2021/04/24 08:32:57;;;;;;;;;23.00;20.25;;;;;13.98;40.47;100563.63;3596505;39;14074;-52
2021/04/24 08:35:24;;;;;;;;;20.25;19.00;;;;;14.13;38.17;100562.69;3596052;39;14065;-53
2021/04/24 08:37:51;;;;;;;;;26.75;24.00;;;;;14.51;41.28;100562.13;3586096;40;14079;-51
2021/04/24 08:40:18;;;;;;;;;19.75;17.25;;;;;13.45;41.10;100554.28;3586397;40;14590;-55
2021/04/24 08:42:48;;;;;;;;;21.25;18.50;;;;;13.11;43.45;100561.63;3586305;40;14075;-50
2021/04/24 08:45:19;;;;;;;;;16.00;15.50;;;;;14.56;38.94;100560.03;3586693;40;14045;-52
2021/04/24 08:47:54;;;;;;;;;19.00;18.00;;;;;14.83;39.67;100561.91;3586111;40;14060;-51
2021/04/24 08:50:26;;;;;;;;;19.50;16.75;;;;;14.74;38.55;100562.50;3601254;39;14017;-51
2021/04/24 08:52:53;;;;;;;;;26.50;20.00;;;;;14.71;40.91;100568.97;3607417;39;14018;-52
2021/04/24 08:55:26;;;;;;;;;19.00;16.25;;;;;14.39;40.04;100560.19;3606554;39;14239;-53
2021/04/24 08:57:54;;;;;;;;;24.00;19.75;;;;;14.62;39.08;100570.44;3605948;39;14456;-53
2021/04/24 09:00:25;;;;;;;;;19.25;18.00;;;;;14.17;39.91;100558.84;3606373;39;14038;-52
2021/04/24 09:02:53;;;;;;;;;20.75;18.50;;;;;14.35;40.02;100564.03;3606702;39;14048;-53
2021/04/24 09:05:22;;;;;;;;;21.25;16.25;;;;;14.67;40.19;100562.91;3606973;39;14017;-52
2021/04/24 09:08:05;;;;;;;;;23.00;16.25;;;;;14.69;39.39;100560.97;3605999;39;14239;-54
2021/04/24 09:10:44;;;;;;;;;18.50;15.00;;;;;14.34;37.93;100554.22;3606198;39;14028;-51
2021/04/24 09:13:19;;;;;;;;;18.75;16.25;;;;;14.14;37.15;100553.66;3607008;39;14508;-52
2021/04/24 09:15:48;;;;;;;;;20.00;14.00;;;;;13.88;37.54;100543.59;3606931;39;14055;-50
2021/04/24 09:18:18;;;;;;;;;24.25;18.25;;;;;13.92;40.47;100542.44;3606544;39;14000;-53
2021/04/24 09:21:00;;;;;;;;;29.25;28.25;;;;;14.48;37.70;100546.09;3605391;39;14600;-51
2021/04/24 09:23:32;;;;;;;;;18.50;15.00;;;;;15.45;37.80;100547.84;3606990;39;14072;-53
2021/04/24 09:26:09;;;;;;;;;22.25;18.50;;;;;15.46;36.09;100547.75;3614466;39;14029;-50
2021/04/24 09:28:41;;;;;;;;;21.25;16.50;;;;;14.92;37.50;100545.06;3606199;39;14044;-53
2021/04/24 09:31:24;;;;;;;;;39.25;31.00;;;;;14.70;37.03;100535.66;3605951;39;14046;-50
2021/04/24 09:34:00;;;;;;;;;17.75;14.00;;;;;15.11;35.93;100534.78;3605490;39;14219;-48
2021/04/24 09:36:38;;;;;;;;;11.00;7.50;;;;;15.11;33.73;100529.38;3606317;39;14220;-48
2021/04/24 09:39:09;;;;;;;;;14.00;11.00;;;;;15.17;36.16;100532.66;3606387;39;14003;-52
2021/04/24 09:41:41;;;;;;;;;14.00;13.25;;;;;14.30;36.89;100520.25;3608599;39;14232;-51
2021/04/24 09:44:13;;;;;;;;;13.50;12.50;;;;;14.69;35.88;100522.25;3608327;39;13996;-53
2021/04/24 09:46:46;;;;;;;;;15.50;14.25;;;;;14.71;36.56;100515.75;3607447;39;13986;-51
2021/04/24 09:49:29;;;;;;;;;14.50;12.00;;;;;15.18;36.13;100512.72;3605078;39;14078;-50
2021/04/24 09:52:05;;;;;;;;;19.25;15.75;;;;;15.74;35.61;100516.09;3596932;40;14542;-51
2021/04/24 09:54:42;;;;;;;;;15.50;14.25;;;;;15.32;35.73;100512.66;3598088;39;14132;-49
2021/04/24 09:57:15;;;;;;;;;14.25;12.00;;;;;15.17;36.81;100500.19;3598205;39;14060;-51
2021/04/24 09:59:57;;;;;;;;;13.50;13.00;;;;;16.00;34.93;100498.88;3598002;39;14024;-51
2021/04/24 10:02:39;;;;;;;;;17.25;14.00;;;;;15.54;35.80;100499.38;3598178;39;14026;-50
2021/04/24 10:05:15;;;;;;;;;17.75;15.25;;;;;15.53;35.40;100500.38;3598093;39;14048;-54
2021/04/24 10:07:46;;;;;;;;;16.00;14.50;;;;;16.15;35.02;100493.34;3598176;39;14048;-53
2021/04/24 10:10:16;;;;;;;;;20.50;15.00;;;;;16.32;35.85;100490.28;3598122;39;14045;-54
2021/04/24 10:12:57;;;;;;;;;17.50;13.00;;;;;15.63;33.93;100487.03;3597450;40;14032;-53
2021/04/24 10:15:46;;;;;;;;;15.50;13.00;;;;;15.83;34.60;100487.53;3597710;39;14051;-49
2021/04/24 10:18:15;;;;;;;;;17.00;14.00;;;;;15.47;34.97;100487.25;3598243;39;14198;-53
2021/04/24 10:20:45;;;;;;;;;17.75;16.00;;;;;15.76;36.40;100482.53;3597964;39;14041;-52
2021/04/24 10:23:15;;;;;;;;;17.25;16.50;;;;;15.99;35.83;100483.63;3596596;40;14062;-53
2021/04/24 10:25:42;;;;;;;;;13.00;13.00;;;;;15.63;35.82;100475.34;3597825;39;14257;-52
2021/04/24 10:28:09;;;;;;;;;12.25;12.25;;;;;15.86;35.41;100477.34;3598004;39;14074;-52
2021/04/24 10:30:38;;;;;;;;;15.00;14.00;;;;;15.58;33.27;100465.69;3597401;39;14071;-52
2021/04/24 10:33:06;;;;;;;;;16.50;14.25;;;;;15.33;34.83;100465.69;3597811;39;14028;-55
2021/04/24 10:35:34;;;;;;;;;14.25;13.00;;;;;16.19;33.92;100462.34;3597491;39;14287;-54
2021/04/24 10:38:02;;;;;;;;;14.00;13.50;;;;;16.00;34.44;100452.81;3597702;39;14221;-54
2021/04/24 10:40:30;;;;;;;;;15.25;13.50;;;;;15.63;33.90;100459.09;3597816;39;14026;-54
2021/04/24 10:42:59;;;;;;;;;11.75;11.75;;;;;15.53;34.33;100457.06;3597416;39;14543;-53
2021/04/24 10:45:35;;;;;;;;;17.50;14.00;;;;;15.76;35.01;100449.19;3596865;40;13990;-54
2021/04/24 10:48:04;;;;;;;;;15.75;13.50;;;;;15.56;33.19;100446.00;3597647;39;14030;-55
2021/04/24 10:50:40;;;;;;;;;16.75;13.75;;;;;16.18;33.87;100444.34;3605707;39;14223;-51
2021/04/24 10:53:30;;;;;;;;;18.25;15.25;;;;;15.65;35.65;100440.94;3607528;39;14024;-53
2021/04/24 10:55:59;;;;;;;;;16.50;13.00;;;;;15.79;34.06;100438.97;3607895;39;14046;-54
2021/04/24 10:58:29;;;;;;;;;14.50;12.50;;;;;16.12;35.54;100436.69;3607591;39;13994;-52
2021/04/24 11:01:06;;;;;;;;;15.25;14.50;;;;;16.53;33.37;100424.63;3607381;39;14007;-55
2021/04/24 11:03:52;;;;;;;;;15.00;13.50;;;;;16.33;33.87;100426.97;3607978;39;14016;-52
2021/04/24 11:06:22;;;;;;;;;13.25;13.00;;;;;15.63;33.58;100422.06;3607583;39;13959;-51
2021/04/24 11:09:17;;;;;;;;;12.50;10.50;;;;;16.15;32.67;100412.06;3606464;39;14203;-53
2021/04/24 11:11:49;;;;;;;;;16.25;14.25;;;;;15.98;33.61;100414.19;3607389;39;14695;-52
2021/04/24 11:14:19;;;;;;;;;14.00;13.00;;;;;15.63;35.39;100404.97;3607784;39;14059;-49
2021/04/24 11:16:47;;;;;;;;;15.00;13.25;;;;;16.29;33.24;100411.91;3607412;39;14548;-54
2021/04/24 11:19:41;;;;;;;;;13.50;13.00;;;;;16.19;33.38;100408.16;3607792;39;14220;-54
2021/04/24 11:22:42;;;;;;;;;13.50;9.50;;;;;16.50;33.60;100401.31;3607809;39;13971;-49
2021/04/24 11:25:22;;;;;;;;;13.00;10.75;;;;;16.16;32.80;100411.94;3607325;39;13926;-53
2021/04/24 11:28:10;;;;;;;;;15.50;10.50;;;;;15.78;32.65;100393.06;3607660;39;14014;-50